sensor_id;sensor_type;location;lat;lon;timestamp;P1;durP1;ratioP1;P2;durP2;ratioP2
65172;SDS011;51758;52.218;5.172;2022-12-18T00:01:00;104.80;;;34.80;;
65172;SDS011;51758;52.218;5.172;2022-12-18T00:03:32;111.23;;;35.77;;
65172;SDS011;51758;52.218;5.172;2022-12-18T00:06:00;119.00;;;35.42;;
65172;SDS011;51758;52.218;5.172;2022-12-18T00:08:28;100.32;;;34.50;;
65172;SDS011;51758;52.218;5.172;2022-12-18T00:11:02;98.77;;;32.93;;
65172;SDS011;51758;52.218;5.172;2022-12-18T00:13:32;115.00;;;37.93;;
65172;SDS011;51758;52.218;5.172;2022-12-18T00:18:31;105.37;;;34.83;;
65172;SDS011;51758;52.218;5.172;2022-12-18T00:20:59;92.72;;;32.05;;
65172;SDS011;51758;52.218;5.172;2022-12-18T00:23:27;101.07;;;32.90;;
65172;SDS011;51758;52.218;5.172;2022-12-18T00:25:58;107.40;;;36.20;;
65172;SDS011;51758;52.218;5.172;2022-12-18T00:28:26;109.67;;;34.67;;
65172;SDS011;51758;52.218;5.172;2022-12-18T00:30:59;115.00;;;36.42;;
65172;SDS011;51758;52.218;5.172;2022-12-18T00:33:29;96.10;;;34.30;;
65172;SDS011;51758;52.218;5.172;2022-12-18T00:35:59;97.13;;;33.93;;
65172;SDS011;51758;52.218;5.172;2022-12-18T00:38:28;102.97;;;35.43;;
65172;SDS011;51758;52.218;5.172;2022-12-18T00:40:55;103.20;;;34.93;;
65172;SDS011;51758;52.218;5.172;2022-12-18T00:43:23;94.30;;;32.13;;
65172;SDS011;51758;52.218;5.172;2022-12-18T00:45:50;100.47;;;33.80;;
65172;SDS011;51758;52.218;5.172;2022-12-18T00:48:18;94.70;;;34.13;;
65172;SDS011;51758;52.218;5.172;2022-12-18T00:50:48;94.50;;;34.97;;
65172;SDS011;51758;52.218;5.172;2022-12-18T00:53:16;94.13;;;33.00;;
65172;SDS011;51758;52.218;5.172;2022-12-18T00:55:44;100.65;;;34.33;;
65172;SDS011;51758;52.218;5.172;2022-12-18T00:58:13;94.13;;;34.17;;
65172;SDS011;51758;52.218;5.172;2022-12-18T01:00:43;91.27;;;31.80;;
65172;SDS011;51758;52.218;5.172;2022-12-18T01:03:12;106.13;;;35.40;;
65172;SDS011;51758;52.218;5.172;2022-12-18T01:05:41;97.50;;;34.93;;
65172;SDS011;51758;52.218;5.172;2022-12-18T01:08:10;91.10;;;33.38;;
65172;SDS011;51758;52.218;5.172;2022-12-18T01:10:39;93.33;;;34.60;;
65172;SDS011;51758;52.218;5.172;2022-12-18T01:13:08;90.90;;;34.70;;
65172;SDS011;51758;52.218;5.172;2022-12-18T01:15:35;90.83;;;33.80;;
65172;SDS011;51758;52.218;5.172;2022-12-18T01:18:03;87.90;;;32.97;;
65172;SDS011;51758;52.218;5.172;2022-12-18T01:20:30;89.77;;;31.90;;
65172;SDS011;51758;52.218;5.172;2022-12-18T01:22:58;83.17;;;32.13;;
65172;SDS011;51758;52.218;5.172;2022-12-18T01:25:27;93.30;;;34.67;;
65172;SDS011;51758;52.218;5.172;2022-12-18T01:27:55;80.37;;;32.30;;
65172;SDS011;51758;52.218;5.172;2022-12-18T01:30:23;94.07;;;36.10;;
65172;SDS011;51758;52.218;5.172;2022-12-18T01:32:50;84.47;;;31.47;;
65172;SDS011;51758;52.218;5.172;2022-12-18T01:35:18;90.30;;;32.87;;
65172;SDS011;51758;52.218;5.172;2022-12-18T01:37:46;90.80;;;33.43;;
65172;SDS011;51758;52.218;5.172;2022-12-18T01:40:13;85.53;;;31.87;;
65172;SDS011;51758;52.218;5.172;2022-12-18T01:42:42;89.23;;;32.43;;
65172;SDS011;51758;52.218;5.172;2022-12-18T01:48:00;88.87;;;32.27;;
65172;SDS011;51758;52.218;5.172;2022-12-18T01:50:31;96.82;;;34.10;;
65172;SDS011;51758;52.218;5.172;2022-12-18T01:53:02;98.53;;;34.63;;
65172;SDS011;51758;52.218;5.172;2022-12-18T01:55:35;94.10;;;33.17;;
65172;SDS011;51758;52.218;5.172;2022-12-18T01:58:07;88.63;;;33.47;;
65172;SDS011;51758;52.218;5.172;2022-12-18T02:00:35;107.17;;;36.77;;
65172;SDS011;51758;52.218;5.172;2022-12-18T02:03:02;97.05;;;33.70;;
65172;SDS011;51758;52.218;5.172;2022-12-18T02:05:35;86.83;;;31.53;;
65172;SDS011;51758;52.218;5.172;2022-12-18T02:08:12;91.47;;;32.97;;
65172;SDS011;51758;52.218;5.172;2022-12-18T02:10:46;89.27;;;31.60;;
65172;SDS011;51758;52.218;5.172;2022-12-18T02:13:23;91.97;;;33.53;;
65172;SDS011;51758;52.218;5.172;2022-12-18T02:16:00;83.80;;;31.37;;
65172;SDS011;51758;52.218;5.172;2022-12-18T02:18:35;90.53;;;31.83;;
65172;SDS011;51758;52.218;5.172;2022-12-18T02:21:08;90.83;;;32.43;;
65172;SDS011;51758;52.218;5.172;2022-12-18T02:23:44;86.60;;;30.30;;
65172;SDS011;51758;52.218;5.172;2022-12-18T02:26:17;89.37;;;31.13;;
65172;SDS011;51758;52.218;5.172;2022-12-18T02:28:50;73.80;;;29.97;;
65172;SDS011;51758;52.218;5.172;2022-12-18T02:31:21;79.43;;;30.83;;
65172;SDS011;51758;52.218;5.172;2022-12-18T02:33:54;81.93;;;30.40;;
65172;SDS011;51758;52.218;5.172;2022-12-18T02:36:25;85.67;;;31.67;;
65172;SDS011;51758;52.218;5.172;2022-12-18T02:38:56;90.90;;;33.00;;
65172;SDS011;51758;52.218;5.172;2022-12-18T02:43:55;88.17;;;31.83;;
65172;SDS011;51758;52.218;5.172;2022-12-18T02:46:27;95.27;;;33.60;;
65172;SDS011;51758;52.218;5.172;2022-12-18T02:49:01;92.37;;;32.87;;
65172;SDS011;51758;52.218;5.172;2022-12-18T02:51:38;93.63;;;33.45;;
65172;SDS011;51758;52.218;5.172;2022-12-18T02:54:16;90.43;;;33.78;;
65172;SDS011;51758;52.218;5.172;2022-12-18T02:56:55;85.82;;;31.95;;
65172;SDS011;51758;52.218;5.172;2022-12-18T02:59:26;97.33;;;35.43;;
65172;SDS011;51758;52.218;5.172;2022-12-18T03:02:02;100.40;;;34.93;;
65172;SDS011;51758;52.218;5.172;2022-12-18T03:04:36;85.83;;;31.50;;
65172;SDS011;51758;52.218;5.172;2022-12-18T03:07:11;82.17;;;31.83;;
65172;SDS011;51758;52.218;5.172;2022-12-18T03:09:46;102.40;;;32.93;;
65172;SDS011;51758;52.218;5.172;2022-12-18T03:12:19;96.10;;;33.63;;
65172;SDS011;51758;52.218;5.172;2022-12-18T03:14:52;94.77;;;32.17;;
65172;SDS011;51758;52.218;5.172;2022-12-18T03:17:25;86.07;;;31.30;;
65172;SDS011;51758;52.218;5.172;2022-12-18T03:19:56;79.70;;;30.17;;
65172;SDS011;51758;52.218;5.172;2022-12-18T03:22:27;86.57;;;31.33;;
65172;SDS011;51758;52.218;5.172;2022-12-18T03:24:59;82.67;;;29.93;;
65172;SDS011;51758;52.218;5.172;2022-12-18T03:27:31;79.57;;;30.50;;
65172;SDS011;51758;52.218;5.172;2022-12-18T03:30:03;83.90;;;30.83;;
65172;SDS011;51758;52.218;5.172;2022-12-18T03:32:36;80.70;;;30.53;;
65172;SDS011;51758;52.218;5.172;2022-12-18T03:35:08;78.13;;;31.43;;
65172;SDS011;51758;52.218;5.172;2022-12-18T03:37:40;79.77;;;31.47;;
65172;SDS011;51758;52.218;5.172;2022-12-18T03:40:08;71.63;;;29.90;;
65172;SDS011;51758;52.218;5.172;2022-12-18T03:42:38;74.55;;;30.30;;
65172;SDS011;51758;52.218;5.172;2022-12-18T03:45:15;77.07;;;30.97;;
65172;SDS011;51758;52.218;5.172;2022-12-18T03:47:50;76.17;;;29.63;;
65172;SDS011;51758;52.218;5.172;2022-12-18T03:50:27;73.88;;;30.63;;
65172;SDS011;51758;52.218;5.172;2022-12-18T03:53:06;74.60;;;29.40;;
65172;SDS011;51758;52.218;5.172;2022-12-18T03:55:44;68.77;;;30.37;;
65172;SDS011;51758;52.218;5.172;2022-12-18T03:58:15;63.88;;;29.83;;
65172;SDS011;51758;52.218;5.172;2022-12-18T04:00:46;74.05;;;30.10;;
65172;SDS011;51758;52.218;5.172;2022-12-18T04:03:17;74.75;;;30.52;;
65172;SDS011;51758;52.218;5.172;2022-12-18T04:05:51;71.45;;;30.60;;
65172;SDS011;51758;52.218;5.172;2022-12-18T04:08:21;67.33;;;29.90;;
65172;SDS011;51758;52.218;5.172;2022-12-18T04:10:50;65.93;;;29.35;;
65172;SDS011;51758;52.218;5.172;2022-12-18T04:13:22;69.00;;;28.83;;
65172;SDS011;51758;52.218;5.172;2022-12-18T04:15:51;70.23;;;29.63;;
65172;SDS011;51758;52.218;5.172;2022-12-18T04:18:19;65.78;;;30.55;;
65172;SDS011;51758;52.218;5.172;2022-12-18T04:20:46;69.97;;;30.70;;
65172;SDS011;51758;52.218;5.172;2022-12-18T04:23:14;63.20;;;28.15;;
65172;SDS011;51758;52.218;5.172;2022-12-18T04:25:42;60.40;;;28.47;;
65172;SDS011;51758;52.218;5.172;2022-12-18T04:28:09;62.10;;;27.77;;
65172;SDS011;51758;52.218;5.172;2022-12-18T04:30:38;60.88;;;27.90;;
65172;SDS011;51758;52.218;5.172;2022-12-18T04:33:08;62.13;;;26.35;;
65172;SDS011;51758;52.218;5.172;2022-12-18T04:35:36;61.95;;;27.65;;
65172;SDS011;51758;52.218;5.172;2022-12-18T04:38:03;61.65;;;28.98;;
65172;SDS011;51758;52.218;5.172;2022-12-18T04:43:00;61.72;;;25.65;;
65172;SDS011;51758;52.218;5.172;2022-12-18T04:45:27;58.42;;;26.00;;
65172;SDS011;51758;52.218;5.172;2022-12-18T04:47:57;58.22;;;27.33;;
65172;SDS011;51758;52.218;5.172;2022-12-18T04:50:25;61.38;;;27.60;;
65172;SDS011;51758;52.218;5.172;2022-12-18T04:52:53;55.10;;;26.27;;
65172;SDS011;51758;52.218;5.172;2022-12-18T04:55:24;55.38;;;25.48;;
65172;SDS011;51758;52.218;5.172;2022-12-18T04:57:52;54.10;;;26.08;;
65172;SDS011;51758;52.218;5.172;2022-12-18T05:00:19;53.17;;;25.70;;
65172;SDS011;51758;52.218;5.172;2022-12-18T05:02:48;55.45;;;25.15;;
65172;SDS011;51758;52.218;5.172;2022-12-18T05:05:17;50.85;;;24.05;;
65172;SDS011;51758;52.218;5.172;2022-12-18T05:07:45;48.63;;;23.40;;
65172;SDS011;51758;52.218;5.172;2022-12-18T05:10:12;49.97;;;23.15;;
65172;SDS011;51758;52.218;5.172;2022-12-18T05:12:40;48.40;;;22.73;;
65172;SDS011;51758;52.218;5.172;2022-12-18T05:15:22;47.33;;;23.15;;
65172;SDS011;51758;52.218;5.172;2022-12-18T05:17:49;50.78;;;23.52;;
65172;SDS011;51758;52.218;5.172;2022-12-18T05:20:18;52.95;;;24.02;;
65172;SDS011;51758;52.218;5.172;2022-12-18T05:22:46;51.05;;;22.95;;
65172;SDS011;51758;52.218;5.172;2022-12-18T05:25:14;47.13;;;22.52;;
65172;SDS011;51758;52.218;5.172;2022-12-18T05:27:42;47.65;;;23.15;;
65172;SDS011;51758;52.218;5.172;2022-12-18T05:30:10;52.20;;;23.40;;
65172;SDS011;51758;52.218;5.172;2022-12-18T05:32:38;53.83;;;23.90;;
65172;SDS011;51758;52.218;5.172;2022-12-18T05:35:07;51.05;;;23.05;;
65172;SDS011;51758;52.218;5.172;2022-12-18T05:37:38;49.25;;;22.70;;
65172;SDS011;51758;52.218;5.172;2022-12-18T05:40:09;47.80;;;22.08;;
65172;SDS011;51758;52.218;5.172;2022-12-18T05:42:38;39.88;;;20.98;;
65172;SDS011;51758;52.218;5.172;2022-12-18T05:45:06;45.78;;;20.77;;
65172;SDS011;51758;52.218;5.172;2022-12-18T05:47:34;44.00;;;20.55;;
65172;SDS011;51758;52.218;5.172;2022-12-18T05:50:02;45.53;;;21.77;;
65172;SDS011;51758;52.218;5.172;2022-12-18T05:52:30;42.97;;;21.30;;
65172;SDS011;51758;52.218;5.172;2022-12-18T05:54:59;43.92;;;22.67;;
65172;SDS011;51758;52.218;5.172;2022-12-18T05:57:27;42.65;;;21.02;;
65172;SDS011;51758;52.218;5.172;2022-12-18T05:59:54;47.38;;;21.83;;
65172;SDS011;51758;52.218;5.172;2022-12-18T06:02:22;43.40;;;21.02;;
65172;SDS011;51758;52.218;5.172;2022-12-18T06:04:50;48.63;;;21.35;;
65172;SDS011;51758;52.218;5.172;2022-12-18T06:07:17;42.20;;;21.05;;
65172;SDS011;51758;52.218;5.172;2022-12-18T06:09:45;39.95;;;20.15;;
65172;SDS011;51758;52.218;5.172;2022-12-18T06:12:14;37.97;;;19.50;;
65172;SDS011;51758;52.218;5.172;2022-12-18T06:14:42;45.05;;;20.67;;
65172;SDS011;51758;52.218;5.172;2022-12-18T06:17:09;45.13;;;19.73;;
65172;SDS011;51758;52.218;5.172;2022-12-18T06:19:37;43.22;;;21.60;;
65172;SDS011;51758;52.218;5.172;2022-12-18T06:22:05;39.80;;;20.52;;
65172;SDS011;51758;52.218;5.172;2022-12-18T06:24:32;42.03;;;20.10;;
65172;SDS011;51758;52.218;5.172;2022-12-18T06:27:00;38.75;;;19.63;;
65172;SDS011;51758;52.218;5.172;2022-12-18T06:29:29;38.67;;;19.40;;
65172;SDS011;51758;52.218;5.172;2022-12-18T06:31:57;38.05;;;18.08;;
65172;SDS011;51758;52.218;5.172;2022-12-18T06:34:25;38.58;;;18.67;;
65172;SDS011;51758;52.218;5.172;2022-12-18T06:36:53;42.28;;;19.58;;
65172;SDS011;51758;52.218;5.172;2022-12-18T06:39:20;41.75;;;19.77;;
65172;SDS011;51758;52.218;5.172;2022-12-18T06:41:48;35.33;;;18.55;;
65172;SDS011;51758;52.218;5.172;2022-12-18T06:44:15;37.20;;;19.23;;
65172;SDS011;51758;52.218;5.172;2022-12-18T06:46:45;39.58;;;19.63;;
65172;SDS011;51758;52.218;5.172;2022-12-18T06:49:12;34.92;;;19.02;;
65172;SDS011;51758;52.218;5.172;2022-12-18T06:51:40;35.25;;;18.85;;
65172;SDS011;51758;52.218;5.172;2022-12-18T06:54:08;33.97;;;18.77;;
65172;SDS011;51758;52.218;5.172;2022-12-18T06:56:36;36.70;;;18.00;;
65172;SDS011;51758;52.218;5.172;2022-12-18T06:59:03;33.30;;;18.35;;
65172;SDS011;51758;52.218;5.172;2022-12-18T07:01:31;33.35;;;17.77;;
65172;SDS011;51758;52.218;5.172;2022-12-18T07:04:00;32.70;;;17.10;;
65172;SDS011;51758;52.218;5.172;2022-12-18T07:06:28;33.92;;;18.38;;
65172;SDS011;51758;52.218;5.172;2022-12-18T07:08:55;31.25;;;17.60;;
65172;SDS011;51758;52.218;5.172;2022-12-18T07:11:23;31.65;;;17.75;;
65172;SDS011;51758;52.218;5.172;2022-12-18T07:13:52;34.97;;;18.10;;
65172;SDS011;51758;52.218;5.172;2022-12-18T07:18:50;33.10;;;17.45;;
65172;SDS011;51758;52.218;5.172;2022-12-18T07:21:20;34.30;;;17.77;;
65172;SDS011;51758;52.218;5.172;2022-12-18T07:23:49;29.15;;;16.63;;
65172;SDS011;51758;52.218;5.172;2022-12-18T07:26:18;28.35;;;16.58;;
65172;SDS011;51758;52.218;5.172;2022-12-18T07:28:47;30.23;;;16.65;;
65172;SDS011;51758;52.218;5.172;2022-12-18T07:31:16;33.72;;;18.25;;
65172;SDS011;51758;52.218;5.172;2022-12-18T07:33:46;30.77;;;17.73;;
65172;SDS011;51758;52.218;5.172;2022-12-18T07:36:15;29.67;;;16.15;;
65172;SDS011;51758;52.218;5.172;2022-12-18T07:38:46;30.13;;;16.52;;
65172;SDS011;51758;52.218;5.172;2022-12-18T07:41:14;29.85;;;16.48;;
65172;SDS011;51758;52.218;5.172;2022-12-18T07:43:41;30.88;;;16.42;;
65172;SDS011;51758;52.218;5.172;2022-12-18T07:46:10;27.98;;;16.95;;
65172;SDS011;51758;52.218;5.172;2022-12-18T07:48:40;33.67;;;20.23;;
65172;SDS011;51758;52.218;5.172;2022-12-18T07:51:09;53.40;;;29.67;;
65172;SDS011;51758;52.218;5.172;2022-12-18T07:53:40;50.35;;;27.23;;
65172;SDS011;51758;52.218;5.172;2022-12-18T07:56:11;85.13;;;40.60;;
65172;SDS011;51758;52.218;5.172;2022-12-18T07:58:56;72.00;;;32.42;;
65172;SDS011;51758;52.218;5.172;2022-12-18T08:01:25;69.45;;;32.05;;
65172;SDS011;51758;52.218;5.172;2022-12-18T08:03:53;72.43;;;35.17;;
65172;SDS011;51758;52.218;5.172;2022-12-18T08:06:21;64.13;;;36.53;;
65172;SDS011;51758;52.218;5.172;2022-12-18T08:08:50;56.55;;;32.13;;
65172;SDS011;51758;52.218;5.172;2022-12-18T08:11:20;46.25;;;25.85;;
65172;SDS011;51758;52.218;5.172;2022-12-18T08:13:47;41.80;;;22.67;;
65172;SDS011;51758;52.218;5.172;2022-12-18T08:16:15;31.15;;;19.48;;
65172;SDS011;51758;52.218;5.172;2022-12-18T08:18:45;30.02;;;18.38;;
65172;SDS011;51758;52.218;5.172;2022-12-18T08:21:13;33.53;;;17.75;;
65172;SDS011;51758;52.218;5.172;2022-12-18T08:23:43;29.70;;;17.30;;
65172;SDS011;51758;52.218;5.172;2022-12-18T08:26:11;30.17;;;17.63;;
65172;SDS011;51758;52.218;5.172;2022-12-18T08:28:40;29.75;;;16.90;;
65172;SDS011;51758;52.218;5.172;2022-12-18T08:31:08;27.15;;;16.92;;
65172;SDS011;51758;52.218;5.172;2022-12-18T08:33:36;33.78;;;18.40;;
65172;SDS011;51758;52.218;5.172;2022-12-18T08:36:07;32.50;;;17.10;;
65172;SDS011;51758;52.218;5.172;2022-12-18T08:38:36;26.77;;;15.93;;
65172;SDS011;51758;52.218;5.172;2022-12-18T08:41:05;28.17;;;16.58;;
65172;SDS011;51758;52.218;5.172;2022-12-18T08:43:34;27.27;;;16.65;;
65172;SDS011;51758;52.218;5.172;2022-12-18T08:46:21;37.65;;;22.52;;
65172;SDS011;51758;52.218;5.172;2022-12-18T08:48:51;35.17;;;20.10;;
65172;SDS011;51758;52.218;5.172;2022-12-18T08:53:47;31.92;;;19.48;;
65172;SDS011;51758;52.218;5.172;2022-12-18T08:56:15;37.55;;;21.45;;
65172;SDS011;51758;52.218;5.172;2022-12-18T08:58:43;35.50;;;20.65;;
65172;SDS011;51758;52.218;5.172;2022-12-18T09:01:11;40.25;;;23.75;;
65172;SDS011;51758;52.218;5.172;2022-12-18T09:03:41;38.77;;;21.87;;
65172;SDS011;51758;52.218;5.172;2022-12-18T09:06:12;29.83;;;17.27;;
65172;SDS011;51758;52.218;5.172;2022-12-18T09:08:41;29.23;;;17.15;;
65172;SDS011;51758;52.218;5.172;2022-12-18T09:11:13;27.85;;;16.92;;
65172;SDS011;51758;52.218;5.172;2022-12-18T09:13:43;30.90;;;18.13;;
65172;SDS011;51758;52.218;5.172;2022-12-18T09:16:11;27.30;;;16.53;;
65172;SDS011;51758;52.218;5.172;2022-12-18T09:18:39;22.30;;;14.88;;
65172;SDS011;51758;52.218;5.172;2022-12-18T09:21:10;29.10;;;16.33;;
65172;SDS011;51758;52.218;5.172;2022-12-18T09:23:39;27.07;;;15.93;;
65172;SDS011;51758;52.218;5.172;2022-12-18T09:26:07;28.35;;;16.27;;
65172;SDS011;51758;52.218;5.172;2022-12-18T09:28:34;26.08;;;17.17;;
65172;SDS011;51758;52.218;5.172;2022-12-18T09:31:04;26.88;;;16.73;;
65172;SDS011;51758;52.218;5.172;2022-12-18T09:33:34;26.97;;;16.17;;
65172;SDS011;51758;52.218;5.172;2022-12-18T09:36:02;27.83;;;16.15;;
65172;SDS011;51758;52.218;5.172;2022-12-18T09:38:34;26.83;;;15.63;;
65172;SDS011;51758;52.218;5.172;2022-12-18T09:41:04;25.10;;;15.60;;
65172;SDS011;51758;52.218;5.172;2022-12-18T09:43:43;23.63;;;15.85;;
65172;SDS011;51758;52.218;5.172;2022-12-18T09:46:15;28.80;;;17.43;;
65172;SDS011;51758;52.218;5.172;2022-12-18T09:48:47;27.13;;;16.63;;
65172;SDS011;51758;52.218;5.172;2022-12-18T09:51:18;30.57;;;17.10;;
65172;SDS011;51758;52.218;5.172;2022-12-18T09:53:58;27.40;;;15.13;;
65172;SDS011;51758;52.218;5.172;2022-12-18T09:56:31;28.67;;;17.40;;
65172;SDS011;51758;52.218;5.172;2022-12-18T09:59:04;23.30;;;15.47;;
65172;SDS011;51758;52.218;5.172;2022-12-18T10:01:32;27.67;;;17.27;;
65172;SDS011;51758;52.218;5.172;2022-12-18T10:04:09;28.77;;;17.70;;
65172;SDS011;51758;52.218;5.172;2022-12-18T10:06:38;28.08;;;17.60;;
65172;SDS011;51758;52.218;5.172;2022-12-18T10:09:16;26.87;;;17.67;;
65172;SDS011;51758;52.218;5.172;2022-12-18T10:11:53;24.63;;;15.70;;
65172;SDS011;51758;52.218;5.172;2022-12-18T10:14:34;25.67;;;16.07;;
65172;SDS011;51758;52.218;5.172;2022-12-18T10:17:12;22.67;;;13.90;;
65172;SDS011;51758;52.218;5.172;2022-12-18T10:19:47;24.90;;;15.53;;
65172;SDS011;51758;52.218;5.172;2022-12-18T10:22:20;24.83;;;15.53;;
65172;SDS011;51758;52.218;5.172;2022-12-18T10:24:58;23.37;;;14.10;;
65172;SDS011;51758;52.218;5.172;2022-12-18T10:27:32;23.13;;;15.60;;
65172;SDS011;51758;52.218;5.172;2022-12-18T10:29:59;23.10;;;15.23;;
65172;SDS011;51758;52.218;5.172;2022-12-18T10:32:29;27.45;;;15.70;;
65172;SDS011;51758;52.218;5.172;2022-12-18T10:34:57;24.23;;;15.10;;
65172;SDS011;51758;52.218;5.172;2022-12-18T10:37:27;26.38;;;14.95;;
65172;SDS011;51758;52.218;5.172;2022-12-18T10:40:12;24.03;;;15.77;;
65172;SDS011;51758;52.218;5.172;2022-12-18T10:42:47;23.27;;;14.93;;
65172;SDS011;51758;52.218;5.172;2022-12-18T10:45:38;22.60;;;14.17;;
65172;SDS011;51758;52.218;5.172;2022-12-18T10:48:17;19.63;;;13.95;;
65172;SDS011;51758;52.218;5.172;2022-12-18T10:50:46;23.23;;;13.97;;
65172;SDS011;51758;52.218;5.172;2022-12-18T10:53:38;21.43;;;13.70;;
65172;SDS011;51758;52.218;5.172;2022-12-18T10:56:10;24.17;;;14.20;;
65172;SDS011;51758;52.218;5.172;2022-12-18T10:58:38;21.90;;;14.17;;
65172;SDS011;51758;52.218;5.172;2022-12-18T11:01:08;24.27;;;15.37;;
65172;SDS011;51758;52.218;5.172;2022-12-18T11:03:38;24.73;;;13.90;;
65172;SDS011;51758;52.218;5.172;2022-12-18T11:06:08;25.47;;;15.47;;
65172;SDS011;51758;52.218;5.172;2022-12-18T11:08:38;25.30;;;14.73;;
65172;SDS011;51758;52.218;5.172;2022-12-18T11:11:07;21.27;;;13.63;;
65172;SDS011;51758;52.218;5.172;2022-12-18T11:16:44;20.37;;;13.40;;
65172;SDS011;51758;52.218;5.172;2022-12-18T11:19:36;24.13;;;14.13;;
65172;SDS011;51758;52.218;5.172;2022-12-18T11:22:17;22.57;;;15.03;;
65172;SDS011;51758;52.218;5.172;2022-12-18T11:24:52;22.93;;;13.43;;
65172;SDS011;51758;52.218;5.172;2022-12-18T11:27:46;17.27;;;11.87;;
65172;SDS011;51758;52.218;5.172;2022-12-18T11:30:20;22.23;;;14.60;;
65172;SDS011;51758;52.218;5.172;2022-12-18T11:32:49;21.37;;;13.67;;
65172;SDS011;51758;52.218;5.172;2022-12-18T11:35:21;20.53;;;13.73;;
65172;SDS011;51758;52.218;5.172;2022-12-18T11:37:57;22.13;;;13.17;;
65172;SDS011;51758;52.218;5.172;2022-12-18T11:40:33;22.17;;;13.77;;
65172;SDS011;51758;52.218;5.172;2022-12-18T11:43:09;22.73;;;14.07;;
65172;SDS011;51758;52.218;5.172;2022-12-18T11:45:40;22.77;;;14.13;;
65172;SDS011;51758;52.218;5.172;2022-12-18T11:48:15;20.87;;;13.37;;
65172;SDS011;51758;52.218;5.172;2022-12-18T11:50:46;22.40;;;12.90;;
65172;SDS011;51758;52.218;5.172;2022-12-18T11:53:17;23.87;;;14.57;;
65172;SDS011;51758;52.218;5.172;2022-12-18T11:55:49;23.05;;;14.52;;
65172;SDS011;51758;52.218;5.172;2022-12-18T11:58:29;39.17;;;20.57;;
65172;SDS011;51758;52.218;5.172;2022-12-18T12:01:15;35.50;;;18.33;;
65172;SDS011;51758;52.218;5.172;2022-12-18T12:04:04;61.60;;;26.63;;
65172;SDS011;51758;52.218;5.172;2022-12-18T12:06:53;55.10;;;24.17;;
65172;SDS011;51758;52.218;5.172;2022-12-18T12:09:31;26.37;;;14.77;;
65172;SDS011;51758;52.218;5.172;2022-12-18T12:12:10;22.27;;;13.90;;
65172;SDS011;51758;52.218;5.172;2022-12-18T12:14:51;30.93;;;17.43;;
65172;SDS011;51758;52.218;5.172;2022-12-18T12:17:30;34.27;;;20.00;;
65172;SDS011;51758;52.218;5.172;2022-12-18T12:20:06;30.23;;;17.57;;
65172;SDS011;51758;52.218;5.172;2022-12-18T12:22:42;22.75;;;13.52;;
65172;SDS011;51758;52.218;5.172;2022-12-18T12:25:19;23.00;;;13.30;;
65172;SDS011;51758;52.218;5.172;2022-12-18T12:27:58;23.07;;;14.77;;
65172;SDS011;51758;52.218;5.172;2022-12-18T12:30:35;22.47;;;14.27;;
65172;SDS011;51758;52.218;5.172;2022-12-18T12:33:15;23.20;;;14.50;;
65172;SDS011;51758;52.218;5.172;2022-12-18T12:35:56;23.70;;;15.77;;
65172;SDS011;51758;52.218;5.172;2022-12-18T12:38:36;23.77;;;15.23;;
65172;SDS011;51758;52.218;5.172;2022-12-18T12:41:17;22.30;;;13.87;;
65172;SDS011;51758;52.218;5.172;2022-12-18T12:44:13;23.93;;;15.23;;
65172;SDS011;51758;52.218;5.172;2022-12-18T12:46:45;23.07;;;13.73;;
65172;SDS011;51758;52.218;5.172;2022-12-18T12:49:15;20.23;;;13.63;;
65172;SDS011;51758;52.218;5.172;2022-12-18T12:51:49;22.07;;;13.87;;
65172;SDS011;51758;52.218;5.172;2022-12-18T12:54:24;21.53;;;13.40;;
65172;SDS011;51758;52.218;5.172;2022-12-18T12:56:54;19.27;;;12.83;;
65172;SDS011;51758;52.218;5.172;2022-12-18T12:59:30;20.23;;;13.13;;
65172;SDS011;51758;52.218;5.172;2022-12-18T13:02:10;23.57;;;12.97;;
65172;SDS011;51758;52.218;5.172;2022-12-18T13:04:47;21.87;;;13.17;;
65172;SDS011;51758;52.218;5.172;2022-12-18T13:07:20;23.40;;;14.07;;
65172;SDS011;51758;52.218;5.172;2022-12-18T13:10:22;20.90;;;12.60;;
65172;SDS011;51758;52.218;5.172;2022-12-18T13:12:57;21.48;;;14.38;;
65172;SDS011;51758;52.218;5.172;2022-12-18T13:15:28;20.10;;;12.67;;
65172;SDS011;51758;52.218;5.172;2022-12-18T13:18:16;18.77;;;12.03;;
65172;SDS011;51758;52.218;5.172;2022-12-18T13:20:47;20.60;;;13.17;;
65172;SDS011;51758;52.218;5.172;2022-12-18T13:23:31;18.45;;;12.30;;
65172;SDS011;51758;52.218;5.172;2022-12-18T13:29:03;21.17;;;13.87;;
65172;SDS011;51758;52.218;5.172;2022-12-18T13:34:29;23.27;;;13.87;;
65172;SDS011;51758;52.218;5.172;2022-12-18T13:39:59;23.00;;;14.80;;
65172;SDS011;51758;52.218;5.172;2022-12-18T13:42:39;24.77;;;14.47;;
65172;SDS011;51758;52.218;5.172;2022-12-18T13:45:41;19.27;;;12.40;;
65172;SDS011;51758;52.218;5.172;2022-12-18T13:48:16;22.80;;;14.43;;
65172;SDS011;51758;52.218;5.172;2022-12-18T13:50:49;20.13;;;13.80;;
65172;SDS011;51758;52.218;5.172;2022-12-18T13:53:21;20.80;;;13.23;;
65172;SDS011;51758;52.218;5.172;2022-12-18T13:55:53;21.57;;;13.43;;
65172;SDS011;51758;52.218;5.172;2022-12-18T13:58:21;22.20;;;12.65;;
65172;SDS011;51758;52.218;5.172;2022-12-18T14:00:49;22.30;;;13.88;;
65172;SDS011;51758;52.218;5.172;2022-12-18T14:03:18;21.37;;;13.17;;
65172;SDS011;51758;52.218;5.172;2022-12-18T14:05:53;21.37;;;13.57;;
65172;SDS011;51758;52.218;5.172;2022-12-18T14:08:23;20.87;;;13.90;;
65172;SDS011;51758;52.218;5.172;2022-12-18T14:10:54;22.97;;;13.83;;
65172;SDS011;51758;52.218;5.172;2022-12-18T14:13:24;21.77;;;12.93;;
65172;SDS011;51758;52.218;5.172;2022-12-18T14:15:55;22.13;;;13.23;;
65172;SDS011;51758;52.218;5.172;2022-12-18T14:18:27;22.77;;;14.10;;
65172;SDS011;51758;52.218;5.172;2022-12-18T14:21:02;23.03;;;14.73;;
65172;SDS011;51758;52.218;5.172;2022-12-18T14:23:32;19.90;;;14.00;;
65172;SDS011;51758;52.218;5.172;2022-12-18T14:26:02;23.03;;;13.47;;
65172;SDS011;51758;52.218;5.172;2022-12-18T14:28:46;22.27;;;13.50;;
65172;SDS011;51758;52.218;5.172;2022-12-18T14:31:16;21.83;;;13.10;;
65172;SDS011;51758;52.218;5.172;2022-12-18T14:33:45;19.77;;;12.17;;
65172;SDS011;51758;52.218;5.172;2022-12-18T14:36:17;20.70;;;12.70;;
65172;SDS011;51758;52.218;5.172;2022-12-18T14:38:48;22.93;;;13.50;;
65172;SDS011;51758;52.218;5.172;2022-12-18T14:41:18;22.13;;;12.87;;
65172;SDS011;51758;52.218;5.172;2022-12-18T14:43:47;20.93;;;13.50;;
65172;SDS011;51758;52.218;5.172;2022-12-18T14:46:27;22.33;;;13.20;;
65172;SDS011;51758;52.218;5.172;2022-12-18T14:48:57;21.73;;;13.30;;
65172;SDS011;51758;52.218;5.172;2022-12-18T14:51:27;21.50;;;13.70;;
65172;SDS011;51758;52.218;5.172;2022-12-18T14:53:57;23.73;;;13.53;;
65172;SDS011;51758;52.218;5.172;2022-12-18T14:56:27;21.03;;;13.70;;
65172;SDS011;51758;52.218;5.172;2022-12-18T14:58:56;21.57;;;13.27;;
65172;SDS011;51758;52.218;5.172;2022-12-18T15:01:26;23.47;;;14.10;;
65172;SDS011;51758;52.218;5.172;2022-12-18T15:03:56;21.33;;;13.47;;
65172;SDS011;51758;52.218;5.172;2022-12-18T15:06:28;22.37;;;13.93;;
65172;SDS011;51758;52.218;5.172;2022-12-18T15:08:58;20.67;;;13.17;;
65172;SDS011;51758;52.218;5.172;2022-12-18T15:11:33;21.38;;;13.93;;
65172;SDS011;51758;52.218;5.172;2022-12-18T15:14:22;24.17;;;14.00;;